Anchorena, Argentina
Current Conditions -  °F | °C
As of 7:00 PM on Thursday 27 Nov 2014 (Local Time) from SAOC Reporting Station
Broken Clouds Broken Clouds  
Wind Chill: 86°   Ceiling: 20000
Heat Index: 86°   Visibility: 6mi
Dew Point: 41°   Wind: 22mph
Humidity: 20%   Direction: 360°N
Pressure: 29.8"   Gusts: 33mph
Location:  35.7°S, 65.37°W
Report Text: SAOC 272200Z 36019G29KT 9999 FEW030TCUSCT100 BKN200 30/05 Q1009
Loading
Personal Weather Stations






























Interactive Weather Map New forecast layout! Learn more

10-Day Weather Forecast

Advertisements
Track Severe Weather on mobile